sensor_id;sensor_type;location;lat;lon;timestamp;P1;durP1;ratioP1;P2;durP2;ratioP2
26530;SDS011;14201;43.188;24.160;2023-12-20T00:00:20;10.40;;;7.20;;
26530;SDS011;14201;43.188;24.160;2023-12-20T00:02:45;13.48;;;7.15;;
26530;SDS011;14201;43.188;24.160;2023-12-20T00:05:12;11.55;;;6.03;;
26530;SDS011;14201;43.188;24.160;2023-12-20T00:07:39;9.30;;;5.85;;
26530;SDS011;14201;43.188;24.160;2023-12-20T00:10:05;11.48;;;6.22;;
26530;SDS011;14201;43.188;24.160;2023-12-20T00:12:30;8.43;;;5.93;;
26530;SDS011;14201;43.188;24.160;2023-12-20T00:14:56;8.75;;;5.90;;
26530;SDS011;14201;43.188;24.160;2023-12-20T00:17:21;9.38;;;6.13;;
26530;SDS011;14201;43.188;24.160;2023-12-20T00:19:47;11.73;;;6.60;;
26530;SDS011;14201;43.188;24.160;2023-12-20T00:22:12;14.20;;;6.57;;
26530;SDS011;14201;43.188;24.160;2023-12-20T00:24:38;10.73;;;6.25;;
26530;SDS011;14201;43.188;24.160;2023-12-20T00:27:03;8.50;;;5.57;;
26530;SDS011;14201;43.188;24.160;2023-12-20T00:29:29;11.75;;;6.47;;
26530;SDS011;14201;43.188;24.160;2023-12-20T00:31:55;10.07;;;6.45;;
26530;SDS011;14201;43.188;24.160;2023-12-20T00:34:21;10.45;;;6.70;;
26530;SDS011;14201;43.188;24.160;2023-12-20T00:36:46;13.60;;;6.68;;
26530;SDS011;14201;43.188;24.160;2023-12-20T00:39:12;12.18;;;7.65;;
26530;SDS011;14201;43.188;24.160;2023-12-20T00:41:38;12.55;;;7.10;;
26530;SDS011;14201;43.188;24.160;2023-12-20T00:44:03;10.43;;;6.95;;
26530;SDS011;14201;43.188;24.160;2023-12-20T00:46:30;10.02;;;7.00;;
26530;SDS011;14201;43.188;24.160;2023-12-20T00:48:55;13.88;;;7.85;;
26530;SDS011;14201;43.188;24.160;2023-12-20T00:51:21;12.85;;;7.78;;
26530;SDS011;14201;43.188;24.160;2023-12-20T00:53:47;15.07;;;7.53;;
26530;SDS011;14201;43.188;24.160;2023-12-20T00:56:15;13.80;;;8.13;;
26530;SDS011;14201;43.188;24.160;2023-12-20T00:58:40;12.75;;;7.88;;
26530;SDS011;14201;43.188;24.160;2023-12-20T01:01:06;12.55;;;8.13;;
26530;SDS011;14201;43.188;24.160;2023-12-20T01:03:32;11.18;;;7.82;;
26530;SDS011;14201;43.188;24.160;2023-12-20T01:05:57;11.45;;;7.07;;
26530;SDS011;14201;43.188;24.160;2023-12-20T01:08:23;11.93;;;7.72;;
26530;SDS011;14201;43.188;24.160;2023-12-20T01:10:48;13.15;;;7.63;;
26530;SDS011;14201;43.188;24.160;2023-12-20T01:13:14;9.13;;;7.07;;
26530;SDS011;14201;43.188;24.160;2023-12-20T01:15:40;13.77;;;7.30;;
26530;SDS011;14201;43.188;24.160;2023-12-20T01:18:05;12.55;;;7.35;;
26530;SDS011;14201;43.188;24.160;2023-12-20T01:20:31;10.63;;;7.13;;
26530;SDS011;14201;43.188;24.160;2023-12-20T01:22:56;11.75;;;7.07;;
26530;SDS011;14201;43.188;24.160;2023-12-20T01:25:22;11.10;;;6.78;;
26530;SDS011;14201;43.188;24.160;2023-12-20T01:27:47;10.25;;;6.60;;
26530;SDS011;14201;43.188;24.160;2023-12-20T01:30:14;10.23;;;6.43;;
26530;SDS011;14201;43.188;24.160;2023-12-20T01:32:40;11.02;;;6.68;;
26530;SDS011;14201;43.188;24.160;2023-12-20T01:35:05;11.05;;;6.85;;
26530;SDS011;14201;43.188;24.160;2023-12-20T01:37:31;11.00;;;6.55;;
26530;SDS011;14201;43.188;24.160;2023-12-20T01:39:57;11.10;;;6.10;;
26530;SDS011;14201;43.188;24.160;2023-12-20T01:42:23;11.30;;;6.47;;
26530;SDS011;14201;43.188;24.160;2023-12-20T01:44:49;8.63;;;5.75;;
26530;SDS011;14201;43.188;24.160;2023-12-20T01:47:15;11.30;;;6.38;;
26530;SDS011;14201;43.188;24.160;2023-12-20T01:49:41;9.95;;;6.13;;
26530;SDS011;14201;43.188;24.160;2023-12-20T01:52:07;10.43;;;6.30;;
26530;SDS011;14201;43.188;24.160;2023-12-20T01:54:34;11.77;;;6.35;;
26530;SDS011;14201;43.188;24.160;2023-12-20T01:57:00;9.10;;;6.07;;
26530;SDS011;14201;43.188;24.160;2023-12-20T01:59:30;14.23;;;6.32;;
26530;SDS011;14201;43.188;24.160;2023-12-20T02:01:56;10.02;;;5.45;;
26530;SDS011;14201;43.188;24.160;2023-12-20T02:04:21;7.85;;;5.20;;
26530;SDS011;14201;43.188;24.160;2023-12-20T02:06:47;8.10;;;5.30;;
26530;SDS011;14201;43.188;24.160;2023-12-20T02:09:15;10.98;;;6.28;;
26530;SDS011;14201;43.188;24.160;2023-12-20T02:11:40;8.52;;;5.47;;
26530;SDS011;14201;43.188;24.160;2023-12-20T02:14:06;8.20;;;5.10;;
26530;SDS011;14201;43.188;24.160;2023-12-20T02:16:32;8.48;;;5.40;;
26530;SDS011;14201;43.188;24.160;2023-12-20T02:18:57;10.82;;;5.95;;
26530;SDS011;14201;43.188;24.160;2023-12-20T02:21:32;8.55;;;5.35;;
26530;SDS011;14201;43.188;24.160;2023-12-20T02:24:00;8.48;;;5.63;;
26530;SDS011;14201;43.188;24.160;2023-12-20T02:26:25;10.15;;;5.75;;
26530;SDS011;14201;43.188;24.160;2023-12-20T02:28:51;8.27;;;5.40;;
26530;SDS011;14201;43.188;24.160;2023-12-20T02:31:20;9.73;;;5.85;;
26530;SDS011;14201;43.188;24.160;2023-12-20T02:33:47;8.57;;;5.85;;
26530;SDS011;14201;43.188;24.160;2023-12-20T02:36:13;9.43;;;5.30;;
26530;SDS011;14201;43.188;24.160;2023-12-20T02:38:38;8.45;;;5.78;;
26530;SDS011;14201;43.188;24.160;2023-12-20T02:41:04;10.02;;;6.18;;
26530;SDS011;14201;43.188;24.160;2023-12-20T02:43:29;9.38;;;6.00;;
26530;SDS011;14201;43.188;24.160;2023-12-20T02:45:55;11.55;;;5.95;;
26530;SDS011;14201;43.188;24.160;2023-12-20T02:48:20;10.00;;;6.05;;
26530;SDS011;14201;43.188;24.160;2023-12-20T02:50:46;9.65;;;6.05;;
26530;SDS011;14201;43.188;24.160;2023-12-20T02:53:14;9.50;;;5.70;;
26530;SDS011;14201;43.188;24.160;2023-12-20T02:55:40;9.40;;;5.75;;
26530;SDS011;14201;43.188;24.160;2023-12-20T02:58:05;11.07;;;6.15;;
26530;SDS011;14201;43.188;24.160;2023-12-20T03:00:31;11.80;;;5.95;;
26530;SDS011;14201;43.188;24.160;2023-12-20T03:02:57;11.45;;;5.28;;
26530;SDS011;14201;43.188;24.160;2023-12-20T03:05:24;9.18;;;5.30;;
26530;SDS011;14201;43.188;24.160;2023-12-20T03:07:53;11.40;;;5.35;;
26530;SDS011;14201;43.188;24.160;2023-12-20T03:10:19;8.95;;;4.90;;
26530;SDS011;14201;43.188;24.160;2023-12-20T03:12:44;9.15;;;5.78;;
26530;SDS011;14201;43.188;24.160;2023-12-20T03:15:10;7.72;;;4.68;;
26530;SDS011;14201;43.188;24.160;2023-12-20T03:17:36;9.30;;;4.90;;
26530;SDS011;14201;43.188;24.160;2023-12-20T03:20:01;7.93;;;4.47;;
26530;SDS011;14201;43.188;24.160;2023-12-20T03:22:27;7.15;;;4.20;;
26530;SDS011;14201;43.188;24.160;2023-12-20T03:24:53;6.28;;;4.00;;
26530;SDS011;14201;43.188;24.160;2023-12-20T03:27:18;6.53;;;4.30;;
26530;SDS011;14201;43.188;24.160;2023-12-20T03:29:44;6.38;;;4.40;;
26530;SDS011;14201;43.188;24.160;2023-12-20T03:32:09;7.90;;;4.60;;
26530;SDS011;14201;43.188;24.160;2023-12-20T03:34:35;6.40;;;4.50;;
26530;SDS011;14201;43.188;24.160;2023-12-20T03:37:01;8.07;;;4.53;;
26530;SDS011;14201;43.188;24.160;2023-12-20T03:39:26;7.78;;;4.00;;
26530;SDS011;14201;43.188;24.160;2023-12-20T03:41:52;6.93;;;4.07;;
26530;SDS011;14201;43.188;24.160;2023-12-20T03:44:17;6.65;;;4.38;;
26530;SDS011;14201;43.188;24.160;2023-12-20T03:46:43;8.77;;;4.45;;
26530;SDS011;14201;43.188;24.160;2023-12-20T03:49:10;7.28;;;3.90;;
26530;SDS011;14201;43.188;24.160;2023-12-20T03:51:36;10.35;;;4.78;;
26530;SDS011;14201;43.188;24.160;2023-12-20T03:54:02;9.63;;;5.00;;
26530;SDS011;14201;43.188;24.160;2023-12-20T03:56:28;10.48;;;5.28;;
26530;SDS011;14201;43.188;24.160;2023-12-20T03:58:53;9.00;;;5.15;;
26530;SDS011;14201;43.188;24.160;2023-12-20T04:01:19;9.38;;;5.18;;
26530;SDS011;14201;43.188;24.160;2023-12-20T04:03:44;9.90;;;5.53;;
26530;SDS011;14201;43.188;24.160;2023-12-20T04:06:10;8.13;;;4.80;;
26530;SDS011;14201;43.188;24.160;2023-12-20T04:08:41;8.20;;;5.47;;
26530;SDS011;14201;43.188;24.160;2023-12-20T04:11:07;8.85;;;5.40;;
26530;SDS011;14201;43.188;24.160;2023-12-20T04:13:33;11.15;;;5.57;;
26530;SDS011;14201;43.188;24.160;2023-12-20T04:15:58;10.63;;;5.50;;
26530;SDS011;14201;43.188;24.160;2023-12-20T04:18:24;10.20;;;6.18;;
26530;SDS011;14201;43.188;24.160;2023-12-20T04:20:49;12.80;;;6.50;;
26530;SDS011;14201;43.188;24.160;2023-12-20T04:23:16;8.50;;;5.88;;
26530;SDS011;14201;43.188;24.160;2023-12-20T04:25:42;9.93;;;5.93;;
26530;SDS011;14201;43.188;24.160;2023-12-20T04:28:07;9.10;;;5.90;;
26530;SDS011;14201;43.188;24.160;2023-12-20T04:30:33;9.70;;;6.15;;
26530;SDS011;14201;43.188;24.160;2023-12-20T04:32:58;12.05;;;6.65;;
26530;SDS011;14201;43.188;24.160;2023-12-20T04:35:24;11.27;;;7.72;;
26530;SDS011;14201;43.188;24.160;2023-12-20T04:37:49;11.00;;;6.90;;
26530;SDS011;14201;43.188;24.160;2023-12-20T04:40:15;11.88;;;7.85;;
26530;SDS011;14201;43.188;24.160;2023-12-20T04:42:41;14.10;;;8.07;;
26530;SDS011;14201;43.188;24.160;2023-12-20T04:45:06;12.30;;;7.75;;
26530;SDS011;14201;43.188;24.160;2023-12-20T04:47:32;14.60;;;8.10;;
26530;SDS011;14201;43.188;24.160;2023-12-20T04:49:58;15.07;;;7.75;;
26530;SDS011;14201;43.188;24.160;2023-12-20T04:52:23;11.13;;;6.68;;
26530;SDS011;14201;43.188;24.160;2023-12-20T04:54:49;11.98;;;7.40;;
26530;SDS011;14201;43.188;24.160;2023-12-20T04:57:15;12.18;;;7.53;;
26530;SDS011;14201;43.188;24.160;2023-12-20T04:59:40;10.10;;;6.47;;
26530;SDS011;14201;43.188;24.160;2023-12-20T05:02:06;10.77;;;6.80;;
26530;SDS011;14201;43.188;24.160;2023-12-20T05:04:32;10.77;;;7.00;;
26530;SDS011;14201;43.188;24.160;2023-12-20T05:06:57;9.68;;;7.13;;
26530;SDS011;14201;43.188;24.160;2023-12-20T05:09:23;12.68;;;7.03;;
26530;SDS011;14201;43.188;24.160;2023-12-20T05:11:49;9.50;;;6.53;;
26530;SDS011;14201;43.188;24.160;2023-12-20T05:14:14;10.95;;;6.70;;
26530;SDS011;14201;43.188;24.160;2023-12-20T05:16:40;11.40;;;7.13;;
26530;SDS011;14201;43.188;24.160;2023-12-20T05:19:05;10.15;;;6.53;;
26530;SDS011;14201;43.188;24.160;2023-12-20T05:21:32;10.45;;;6.80;;
26530;SDS011;14201;43.188;24.160;2023-12-20T05:23:58;11.50;;;5.90;;
26530;SDS011;14201;43.188;24.160;2023-12-20T05:26:24;8.55;;;5.47;;
26530;SDS011;14201;43.188;24.160;2023-12-20T05:28:49;10.63;;;6.15;;
26530;SDS011;14201;43.188;24.160;2023-12-20T05:31:15;11.38;;;6.47;;
26530;SDS011;14201;43.188;24.160;2023-12-20T05:33:40;10.88;;;7.10;;
26530;SDS011;14201;43.188;24.160;2023-12-20T05:36:06;10.20;;;6.22;;
26530;SDS011;14201;43.188;24.160;2023-12-20T05:38:36;10.70;;;5.95;;
26530;SDS011;14201;43.188;24.160;2023-12-20T05:41:02;9.85;;;5.85;;
26530;SDS011;14201;43.188;24.160;2023-12-20T05:43:27;15.82;;;10.40;;
26530;SDS011;14201;43.188;24.160;2023-12-20T05:45:53;14.43;;;8.63;;
26530;SDS011;14201;43.188;24.160;2023-12-20T05:48:18;14.82;;;7.78;;
26530;SDS011;14201;43.188;24.160;2023-12-20T05:50:44;11.57;;;7.65;;
26530;SDS011;14201;43.188;24.160;2023-12-20T05:53:09;10.80;;;8.05;;
26530;SDS011;14201;43.188;24.160;2023-12-20T05:55:35;12.85;;;7.22;;
26530;SDS011;14201;43.188;24.160;2023-12-20T05:58:01;11.95;;;7.82;;
26530;SDS011;14201;43.188;24.160;2023-12-20T06:00:26;10.38;;;6.65;;
26530;SDS011;14201;43.188;24.160;2023-12-20T06:02:52;12.43;;;6.95;;
26530;SDS011;14201;43.188;24.160;2023-12-20T06:05:17;13.35;;;6.57;;
26530;SDS011;14201;43.188;24.160;2023-12-20T06:07:43;10.23;;;6.93;;
26530;SDS011;14201;43.188;24.160;2023-12-20T06:10:10;14.02;;;6.60;;
26530;SDS011;14201;43.188;24.160;2023-12-20T06:12:35;14.60;;;6.53;;
26530;SDS011;14201;43.188;24.160;2023-12-20T06:15:02;13.15;;;7.43;;
26530;SDS011;14201;43.188;24.160;2023-12-20T06:17:28;13.82;;;7.47;;
26530;SDS011;14201;43.188;24.160;2023-12-20T06:19:55;11.52;;;6.57;;
26530;SDS011;14201;43.188;24.160;2023-12-20T06:22:21;15.65;;;6.18;;
26530;SDS011;14201;43.188;24.160;2023-12-20T06:24:46;14.95;;;6.95;;
26530;SDS011;14201;43.188;24.160;2023-12-20T06:27:12;14.27;;;7.20;;
26530;SDS011;14201;43.188;24.160;2023-12-20T06:29:38;11.32;;;6.30;;
26530;SDS011;14201;43.188;24.160;2023-12-20T06:32:04;11.25;;;6.25;;
26530;SDS011;14201;43.188;24.160;2023-12-20T06:34:29;11.73;;;6.47;;
26530;SDS011;14201;43.188;24.160;2023-12-20T06:36:55;9.68;;;6.72;;
26530;SDS011;14201;43.188;24.160;2023-12-20T06:39:20;14.25;;;7.05;;
26530;SDS011;14201;43.188;24.160;2023-12-20T06:41:46;10.73;;;6.47;;
26530;SDS011;14201;43.188;24.160;2023-12-20T06:44:12;11.68;;;6.68;;
26530;SDS011;14201;43.188;24.160;2023-12-20T06:46:37;14.70;;;6.88;;
26530;SDS011;14201;43.188;24.160;2023-12-20T06:49:03;10.30;;;5.75;;
26530;SDS011;14201;43.188;24.160;2023-12-20T06:51:28;8.90;;;5.47;;
26530;SDS011;14201;43.188;24.160;2023-12-20T06:53:55;8.27;;;5.80;;
26530;SDS011;14201;43.188;24.160;2023-12-20T06:56:21;11.93;;;5.50;;
26530;SDS011;14201;43.188;24.160;2023-12-20T06:58:47;10.77;;;5.80;;
26530;SDS011;14201;43.188;24.160;2023-12-20T07:01:13;39.03;;;24.67;;
26530;SDS011;14201;43.188;24.160;2023-12-20T07:03:39;34.15;;;22.65;;
26530;SDS011;14201;43.188;24.160;2023-12-20T07:06:05;19.70;;;13.32;;
26530;SDS011;14201;43.188;24.160;2023-12-20T07:08:31;16.58;;;8.27;;
26530;SDS011;14201;43.188;24.160;2023-12-20T07:10:56;10.05;;;5.82;;
26530;SDS011;14201;43.188;24.160;2023-12-20T07:13:22;9.73;;;5.80;;
26530;SDS011;14201;43.188;24.160;2023-12-20T07:15:48;11.65;;;5.53;;
26530;SDS011;14201;43.188;24.160;2023-12-20T07:18:13;8.25;;;4.38;;
26530;SDS011;14201;43.188;24.160;2023-12-20T07:20:39;8.27;;;4.57;;
26530;SDS011;14201;43.188;24.160;2023-12-20T07:23:05;6.97;;;4.10;;
26530;SDS011;14201;43.188;24.160;2023-12-20T07:25:30;11.88;;;5.50;;
26530;SDS011;14201;43.188;24.160;2023-12-20T07:27:57;11.45;;;4.55;;
26530;SDS011;14201;43.188;24.160;2023-12-20T07:30:23;9.88;;;5.22;;
26530;SDS011;14201;43.188;24.160;2023-12-20T07:32:49;10.15;;;4.65;;
26530;SDS011;14201;43.188;24.160;2023-12-20T07:35:18;7.70;;;4.55;;
26530;SDS011;14201;43.188;24.160;2023-12-20T07:37:43;9.68;;;4.18;;
26530;SDS011;14201;43.188;24.160;2023-12-20T07:40:09;8.45;;;3.80;;
26530;SDS011;14201;43.188;24.160;2023-12-20T07:42:35;7.55;;;4.03;;
26530;SDS011;14201;43.188;24.160;2023-12-20T07:45:01;5.60;;;3.60;;
26530;SDS011;14201;43.188;24.160;2023-12-20T07:47:27;8.25;;;4.43;;
26530;SDS011;14201;43.188;24.160;2023-12-20T07:49:53;12.35;;;5.45;;
26530;SDS011;14201;43.188;24.160;2023-12-20T07:52:18;11.15;;;5.45;;
26530;SDS011;14201;43.188;24.160;2023-12-20T07:54:44;9.25;;;4.95;;
26530;SDS011;14201;43.188;24.160;2023-12-20T07:57:11;6.65;;;4.40;;
26530;SDS011;14201;43.188;24.160;2023-12-20T07:59:37;10.52;;;4.95;;
26530;SDS011;14201;43.188;24.160;2023-12-20T08:02:02;8.85;;;4.85;;
26530;SDS011;14201;43.188;24.160;2023-12-20T08:04:28;7.55;;;4.65;;
26530;SDS011;14201;43.188;24.160;2023-12-20T08:06:54;10.52;;;4.93;;
26530;SDS011;14201;43.188;24.160;2023-12-20T08:09:20;16.42;;;4.63;;
26530;SDS011;14201;43.188;24.160;2023-12-20T08:11:46;6.82;;;4.50;;
26530;SDS011;14201;43.188;24.160;2023-12-20T08:14:12;8.02;;;3.72;;
26530;SDS011;14201;43.188;24.160;2023-12-20T08:16:38;11.32;;;3.58;;
26530;SDS011;14201;43.188;24.160;2023-12-20T08:19:04;8.18;;;2.60;;
26530;SDS011;14201;43.188;24.160;2023-12-20T08:21:29;41.03;;;23.58;;
26530;SDS011;14201;43.188;24.160;2023-12-20T08:23:55;32.53;;;20.90;;
26530;SDS011;14201;43.188;24.160;2023-12-20T08:26:21;35.75;;;21.35;;
26530;SDS011;14201;43.188;24.160;2023-12-20T08:28:50;35.22;;;19.73;;
26530;SDS011;14201;43.188;24.160;2023-12-20T08:31:16;27.58;;;15.68;;
26530;SDS011;14201;43.188;24.160;2023-12-20T08:33:45;36.30;;;14.85;;
26530;SDS011;14201;43.188;24.160;2023-12-20T08:36:12;30.02;;;11.65;;
26530;SDS011;14201;43.188;24.160;2023-12-20T08:38:38;24.77;;;12.10;;
26530;SDS011;14201;43.188;24.160;2023-12-20T08:41:03;16.88;;;10.10;;
26530;SDS011;14201;43.188;24.160;2023-12-20T08:43:32;13.48;;;7.32;;
26530;SDS011;14201;43.188;24.160;2023-12-20T08:46:00;15.55;;;8.07;;
26530;SDS011;14201;43.188;24.160;2023-12-20T08:48:26;18.98;;;9.90;;
26530;SDS011;14201;43.188;24.160;2023-12-20T08:50:51;23.98;;;11.57;;
26530;SDS011;14201;43.188;24.160;2023-12-20T08:53:18;22.95;;;11.40;;
26530;SDS011;14201;43.188;24.160;2023-12-20T08:55:44;21.40;;;10.18;;
26530;SDS011;14201;43.188;24.160;2023-12-20T08:58:10;20.25;;;9.82;;
26530;SDS011;14201;43.188;24.160;2023-12-20T09:00:36;19.42;;;10.32;;
26530;SDS011;14201;43.188;24.160;2023-12-20T09:03:02;21.95;;;9.95;;
26530;SDS011;14201;43.188;24.160;2023-12-20T09:05:28;19.50;;;9.10;;
26530;SDS011;14201;43.188;24.160;2023-12-20T09:07:53;22.52;;;10.02;;
26530;SDS011;14201;43.188;24.160;2023-12-20T09:10:19;21.13;;;11.93;;
26530;SDS011;14201;43.188;24.160;2023-12-20T09:12:50;18.10;;;11.60;;
26530;SDS011;14201;43.188;24.160;2023-12-20T09:15:21;19.75;;;11.48;;
26530;SDS011;14201;43.188;24.160;2023-12-20T09:17:48;19.58;;;10.68;;
26530;SDS011;14201;43.188;24.160;2023-12-20T09:20:13;16.95;;;9.77;;
26530;SDS011;14201;43.188;24.160;2023-12-20T09:22:39;19.63;;;11.88;;
26530;SDS011;14201;43.188;24.160;2023-12-20T09:25:06;19.45;;;13.35;;
26530;SDS011;14201;43.188;24.160;2023-12-20T09:27:33;17.83;;;12.32;;
26530;SDS011;14201;43.188;24.160;2023-12-20T09:29:58;21.90;;;11.20;;
26530;SDS011;14201;43.188;24.160;2023-12-20T09:32:24;15.85;;;8.70;;
26530;SDS011;14201;43.188;24.160;2023-12-20T09:34:49;13.13;;;7.80;;
26530;SDS011;14201;43.188;24.160;2023-12-20T09:37:15;16.52;;;7.20;;
26530;SDS011;14201;43.188;24.160;2023-12-20T09:39:41;9.65;;;5.32;;
26530;SDS011;14201;43.188;24.160;2023-12-20T09:42:06;11.00;;;5.63;;
26530;SDS011;14201;43.188;24.160;2023-12-20T09:44:33;12.43;;;8.45;;
26530;SDS011;14201;43.188;24.160;2023-12-20T09:47:02;14.60;;;9.32;;
26530;SDS011;14201;43.188;24.160;2023-12-20T09:49:29;19.08;;;11.07;;
26530;SDS011;14201;43.188;24.160;2023-12-20T09:51:56;22.80;;;11.45;;
26530;SDS011;14201;43.188;24.160;2023-12-20T09:54:22;22.60;;;11.85;;
26530;SDS011;14201;43.188;24.160;2023-12-20T09:56:49;14.85;;;9.10;;
26530;SDS011;14201;43.188;24.160;2023-12-20T09:59:15;12.38;;;6.88;;
26530;SDS011;14201;43.188;24.160;2023-12-20T10:01:41;11.23;;;6.60;;
26530;SDS011;14201;43.188;24.160;2023-12-20T10:04:08;9.43;;;6.55;;
26530;SDS011;14201;43.188;24.160;2023-12-20T10:06:40;15.90;;;8.23;;
26530;SDS011;14201;43.188;24.160;2023-12-20T10:09:07;15.47;;;7.87;;
26530;SDS011;14201;43.188;24.160;2023-12-20T10:11:34;12.55;;;7.95;;
26530;SDS011;14201;43.188;24.160;2023-12-20T10:14:00;14.65;;;8.75;;
26530;SDS011;14201;43.188;24.160;2023-12-20T10:16:27;15.48;;;7.97;;
26530;SDS011;14201;43.188;24.160;2023-12-20T10:18:53;13.23;;;6.97;;
26530;SDS011;14201;43.188;24.160;2023-12-20T10:21:19;12.18;;;7.05;;
26530;SDS011;14201;43.188;24.160;2023-12-20T10:23:46;12.73;;;7.05;;
26530;SDS011;14201;43.188;24.160;2023-12-20T10:26:21;10.07;;;5.63;;
26530;SDS011;14201;43.188;24.160;2023-12-20T10:28:52;7.43;;;4.10;;
26530;SDS011;14201;43.188;24.160;2023-12-20T10:31:29;6.30;;;4.00;;
26530;SDS011;14201;43.188;24.160;2023-12-20T10:33:56;5.95;;;4.10;;
26530;SDS011;14201;43.188;24.160;2023-12-20T10:36:29;7.93;;;3.90;;
26530;SDS011;14201;43.188;24.160;2023-12-20T10:38:56;17.27;;;7.07;;
26530;SDS011;14201;43.188;24.160;2023-12-20T10:41:29;11.98;;;6.88;;
26530;SDS011;14201;43.188;24.160;2023-12-20T10:44:00;10.82;;;6.47;;
26530;SDS011;14201;43.188;24.160;2023-12-20T10:46:28;9.88;;;5.90;;
26530;SDS011;14201;43.188;24.160;2023-12-20T10:48:55;10.55;;;5.85;;
26530;SDS011;14201;43.188;24.160;2023-12-20T10:51:21;13.95;;;6.18;;
26530;SDS011;14201;43.188;24.160;2023-12-20T10:53:49;15.57;;;6.57;;
26530;SDS011;14201;43.188;24.160;2023-12-20T10:56:19;15.25;;;7.72;;
26530;SDS011;14201;43.188;24.160;2023-12-20T10:58:46;10.10;;;6.63;;
26530;SDS011;14201;43.188;24.160;2023-12-20T11:01:14;10.77;;;7.20;;
26530;SDS011;14201;43.188;24.160;2023-12-20T11:03:52;15.13;;;7.75;;
26530;SDS011;14201;43.188;24.160;2023-12-20T11:14:23;15.90;;;8.88;;
26530;SDS011;14201;43.188;24.160;2023-12-20T11:17:07;17.70;;;7.40;;
26530;SDS011;14201;43.188;24.160;2023-12-20T11:20:08;13.90;;;6.90;;
26530;SDS011;14201;43.188;24.160;2023-12-20T11:22:27;10.05;;;5.70;;
26530;SDS011;14201;43.188;24.160;2023-12-20T11:24:58;11.20;;;4.57;;
26530;SDS011;14201;43.188;24.160;2023-12-20T11:27:33;11.30;;;5.18;;
26530;SDS011;14201;43.188;24.160;2023-12-20T11:30:00;13.60;;;5.38;;
26530;SDS011;14201;43.188;24.160;2023-12-20T11:32:33;15.77;;;6.10;;
26530;SDS011;14201;43.188;24.160;2023-12-20T11:35:21;13.30;;;6.47;;
26530;SDS011;14201;43.188;24.160;2023-12-20T11:37:45;14.88;;;6.03;;
26530;SDS011;14201;43.188;24.160;2023-12-20T11:40:17;12.77;;;7.70;;
26530;SDS011;14201;43.188;24.160;2023-12-20T11:42:50;11.30;;;6.57;;
26530;SDS011;14201;43.188;24.160;2023-12-20T11:45:21;9.43;;;6.13;;
26530;SDS011;14201;43.188;24.160;2023-12-20T11:47:49;9.50;;;6.22;;
26530;SDS011;14201;43.188;24.160;2023-12-20T11:50:20;11.35;;;5.80;;
26530;SDS011;14201;43.188;24.160;2023-12-20T11:52:47;10.57;;;6.28;;
26530;SDS011;14201;43.188;24.160;2023-12-20T11:55:14;12.00;;;6.32;;
26530;SDS011;14201;43.188;24.160;2023-12-20T11:57:39;10.55;;;6.53;;
26530;SDS011;14201;43.188;24.160;2023-12-20T12:00:05;11.95;;;6.63;;
26530;SDS011;14201;43.188;24.160;2023-12-20T12:02:31;11.80;;;6.57;;
26530;SDS011;14201;43.188;24.160;2023-12-20T12:04:57;10.90;;;5.65;;
26530;SDS011;14201;43.188;24.160;2023-12-20T12:07:25;5.95;;;4.47;;
26530;SDS011;14201;43.188;24.160;2023-12-20T12:09:50;8.52;;;4.65;;
26530;SDS011;14201;43.188;24.160;2023-12-20T12:12:16;8.20;;;4.30;;
26530;SDS011;14201;43.188;24.160;2023-12-20T12:14:45;12.77;;;4.93;;
26530;SDS011;14201;43.188;24.160;2023-12-20T12:17:12;7.50;;;3.58;;
26530;SDS011;14201;43.188;24.160;2023-12-20T12:19:39;5.45;;;2.92;;
26530;SDS011;14201;43.188;24.160;2023-12-20T12:22:12;6.18;;;3.50;;
26530;SDS011;14201;43.188;24.160;2023-12-20T12:24:45;8.82;;;4.25;;
26530;SDS011;14201;43.188;24.160;2023-12-20T12:27:15;9.88;;;4.57;;
26530;SDS011;14201;43.188;24.160;2023-12-20T12:29:41;13.02;;;6.15;;
26530;SDS011;14201;43.188;24.160;2023-12-20T12:32:25;13.70;;;7.70;;
26530;SDS011;14201;43.188;24.160;2023-12-20T12:34:50;12.93;;;7.20;;
26530;SDS011;14201;43.188;24.160;2023-12-20T12:37:16;12.75;;;6.85;;
26530;SDS011;14201;43.188;24.160;2023-12-20T12:39:42;13.25;;;6.93;;
26530;SDS011;14201;43.188;24.160;2023-12-20T12:42:08;11.68;;;6.57;;
26530;SDS011;14201;43.188;24.160;2023-12-20T12:44:33;12.80;;;7.10;;
26530;SDS011;14201;43.188;24.160;2023-12-20T12:46:59;12.80;;;6.53;;
26530;SDS011;14201;43.188;24.160;2023-12-20T12:49:24;12.98;;;7.72;;
26530;SDS011;14201;43.188;24.160;2023-12-20T12:51:50;15.68;;;7.40;;
26530;SDS011;14201;43.188;24.160;2023-12-20T12:54:16;11.77;;;7.65;;
26530;SDS011;14201;43.188;24.160;2023-12-20T12:56:43;12.32;;;6.95;;
26530;SDS011;14201;43.188;24.160;2023-12-20T12:59:09;15.90;;;7.03;;
26530;SDS011;14201;43.188;24.160;2023-12-20T13:01:36;16.15;;;8.23;;
26530;SDS011;14201;43.188;24.160;2023-12-20T13:04:01;14.07;;;7.60;;
26530;SDS011;14201;43.188;24.160;2023-12-20T13:06:31;16.08;;;7.57;;
26530;SDS011;14201;43.188;24.160;2023-12-20T13:08:57;13.10;;;7.15;;
26530;SDS011;14201;43.188;24.160;2023-12-20T13:11:23;18.13;;;8.63;;
26530;SDS011;14201;43.188;24.160;2023-12-20T13:13:50;21.70;;;7.43;;
26530;SDS011;14201;43.188;24.160;2023-12-20T13:16:15;8.77;;;5.90;;
26530;SDS011;14201;43.188;24.160;2023-12-20T13:18:41;11.43;;;5.65;;
26530;SDS011;14201;43.188;24.160;2023-12-20T13:21:08;9.13;;;5.82;;
26530;SDS011;14201;43.188;24.160;2023-12-20T13:23:34;11.85;;;5.85;;
26530;SDS011;14201;43.188;24.160;2023-12-20T13:25:59;9.65;;;5.82;;
26530;SDS011;14201;43.188;24.160;2023-12-20T13:28:25;11.88;;;5.80;;
26530;SDS011;14201;43.188;24.160;2023-12-20T13:30:50;10.73;;;5.43;;
26530;SDS011;14201;43.188;24.160;2023-12-20T13:33:16;8.82;;;5.70;;
26530;SDS011;14201;43.188;24.160;2023-12-20T13:35:42;17.42;;;5.50;;
26530;SDS011;14201;43.188;24.160;2023-12-20T13:38:07;17.92;;;5.90;;
26530;SDS011;14201;43.188;24.160;2023-12-20T13:40:33;12.27;;;5.90;;
26530;SDS011;14201;43.188;24.160;2023-12-20T13:42:58;12.48;;;5.57;;
26530;SDS011;14201;43.188;24.160;2023-12-20T13:45:24;10.55;;;5.90;;
26530;SDS011;14201;43.188;24.160;2023-12-20T13:47:50;9.45;;;5.65;;
26530;SDS011;14201;43.188;24.160;2023-12-20T13:50:16;12.43;;;5.80;;
26530;SDS011;14201;43.188;24.160;2023-12-20T13:52:42;12.43;;;6.38;;
26530;SDS011;14201;43.188;24.160;2023-12-20T13:55:08;13.68;;;5.72;;
26530;SDS011;14201;43.188;24.160;2023-12-20T13:57:34;13.15;;;6.15;;
26530;SDS011;14201;43.188;24.160;2023-12-20T14:00:02;12.30;;;6.00;;
26530;SDS011;14201;43.188;24.160;2023-12-20T14:02:30;14.68;;;6.00;;
26530;SDS011;14201;43.188;24.160;2023-12-20T14:04:55;12.05;;;5.78;;
26530;SDS011;14201;43.188;24.160;2023-12-20T14:07:21;15.73;;;6.18;;
26530;SDS011;14201;43.188;24.160;2023-12-20T14:09:46;13.70;;;5.43;;
26530;SDS011;14201;43.188;24.160;2023-12-20T14:12:12;18.60;;;6.18;;
26530;SDS011;14201;43.188;24.160;2023-12-20T14:14:38;10.43;;;5.50;;
26530;SDS011;14201;43.188;24.160;2023-12-20T14:17:04;10.07;;;4.85;;
26530;SDS011;14201;43.188;24.160;2023-12-20T14:19:31;14.40;;;4.90;;
26530;SDS011;14201;43.188;24.160;2023-12-20T14:21:57;10.00;;;4.90;;
26530;SDS011;14201;43.188;24.160;2023-12-20T14:24:26;12.77;;;5.72;;
26530;SDS011;14201;43.188;24.160;2023-12-20T14:26:52;13.48;;;5.60;;